createdAt,value
2022-11-21T00:01:27.108Z,4.43
2022-11-21T00:03:54.560Z,4.30
2022-11-21T00:06:23.725Z,3.78
2022-11-21T00:08:51.204Z,4.53
2022-11-21T00:11:18.540Z,3.60
2022-11-21T00:13:45.768Z,4.45
2022-11-21T00:16:16.252Z,4.93
2022-11-21T00:18:44.432Z,4.75
2022-11-21T00:21:18.107Z,3.58
2022-11-21T00:23:47.094Z,5.18
2022-11-21T00:26:16.654Z,4.45
2022-11-21T00:28:44.023Z,3.53
2022-11-21T00:31:23.634Z,5.53
2022-11-21T00:33:51.031Z,2.88
2022-11-21T00:36:18.275Z,4.00
2022-11-21T00:38:45.529Z,5.38
2022-11-21T00:41:12.688Z,3.90
2022-11-21T00:43:39.799Z,3.25
2022-11-21T00:46:07.002Z,0.45
2022-11-21T00:48:34.371Z,0.55
2022-11-21T00:51:02.041Z,0.60
2022-11-21T00:53:30.425Z,0.60
2022-11-21T00:55:58.265Z,0.60
2022-11-21T00:58:26.122Z,0.65
2022-11-21T01:00:53.619Z,0.60
2022-11-21T01:03:20.878Z,0.52
2022-11-21T01:05:48.324Z,0.82
2022-11-21T01:08:15.612Z,0.70
2022-11-21T01:10:42.893Z,0.70
2022-11-21T01:13:10.233Z,0.85
2022-11-21T01:15:37.290Z,0.60
2022-11-21T01:18:04.612Z,0.70
2022-11-21T01:20:31.754Z,0.80
2022-11-21T01:22:58.959Z,0.60
2022-11-21T01:25:26.312Z,0.85
2022-11-21T01:27:53.530Z,0.73
2022-11-21T01:30:20.828Z,0.60
2022-11-21T01:32:50.744Z,0.70
2022-11-21T01:35:19.064Z,1.08
2022-11-21T01:37:49.976Z,0.98
2022-11-21T01:40:17.570Z,0.70
2022-11-21T01:43:06.812Z,0.60
2022-11-21T01:46:19.404Z,2.53
2022-11-21T01:48:58.589Z,3.38
2022-11-21T01:51:38.535Z,2.78
2022-11-21T01:54:24.943Z,4.43
2022-11-21T01:57:05.694Z,3.40
2022-11-21T01:59:48.491Z,5.10
2022-11-21T02:02:21.045Z,3.72
2022-11-21T02:04:50.535Z,1.88
2022-11-21T02:07:20.675Z,0.68
2022-11-21T02:09:53.119Z,3.53
2022-11-21T02:12:48.258Z,22.63
2022-11-21T02:15:16.071Z,5.70
2022-11-21T02:17:43.079Z,3.42
2022-11-21T02:20:14.721Z,3.55
2022-11-21T02:23:14.400Z,6.70
2022-11-21T02:25:43.257Z,0.88
2022-11-21T02:28:17.360Z,0.95
2022-11-21T02:30:44.597Z,5.32
2022-11-21T02:33:12.791Z,4.75
2022-11-21T02:35:40.725Z,3.75
2022-11-21T02:38:33.225Z,0.60
2022-11-21T02:41:14.457Z,0.60
2022-11-21T02:43:54.113Z,5.22
2022-11-21T02:46:21.325Z,3.00
2022-11-21T02:48:48.393Z,0.93
2022-11-21T02:51:15.374Z,1.10
2022-11-21T02:53:42.382Z,1.25
2022-11-21T02:56:09.413Z,2.92
2022-11-21T02:58:36.775Z,4.70
2022-11-21T03:01:03.827Z,0.63
2022-11-21T03:03:31.013Z,3.05
2022-11-21T03:05:58.075Z,3.00
2022-11-21T03:08:25.155Z,3.35
2022-11-21T03:10:52.228Z,3.67
2022-11-21T03:13:19.239Z,0.60
2022-11-21T03:15:46.314Z,0.70
2022-11-21T03:18:13.319Z,0.70
2022-11-21T03:20:40.402Z,4.70
2022-11-21T03:23:07.448Z,4.22
2022-11-21T03:25:34.525Z,0.35
2022-11-21T03:28:01.526Z,0.60
2022-11-21T03:30:28.566Z,0.50
2022-11-21T03:32:56.937Z,0.45
2022-11-21T03:35:24.873Z,0.65
2022-11-21T03:37:51.978Z,1.17
2022-11-21T03:40:19.086Z,3.75
2022-11-21T03:42:46.104Z,3.47
2022-11-21T03:45:13.105Z,0.77
2022-11-21T03:47:40.096Z,1.00
2022-11-21T03:50:07.896Z,0.70
2022-11-21T03:52:34.998Z,0.90
2022-11-21T03:55:02.050Z,0.60
2022-11-21T03:57:29.117Z,0.82
2022-11-21T03:59:56.135Z,0.80
2022-11-21T04:02:23.097Z,1.23
2022-11-21T04:04:50.090Z,2.47
2022-11-21T04:07:17.124Z,0.73
2022-11-21T04:09:44.229Z,1.35
2022-11-21T04:12:11.219Z,0.82
2022-11-21T04:14:38.420Z,1.45
2022-11-21T04:17:05.453Z,1.00
2022-11-21T04:19:32.516Z,1.00
2022-11-21T04:21:59.465Z,1.00
2022-11-21T04:24:26.854Z,1.23
2022-11-21T04:26:56.996Z,0.68
2022-11-21T04:29:24.010Z,1.00
2022-11-21T04:31:50.966Z,1.55
2022-11-21T04:34:18.014Z,1.10
2022-11-21T04:36:45.715Z,1.08
2022-11-21T04:39:12.745Z,1.17
2022-11-21T04:41:39.680Z,1.23
2022-11-21T04:44:06.700Z,1.35
2022-11-21T04:46:33.703Z,0.70
2022-11-21T04:49:00.798Z,1.33
2022-11-21T04:51:28.541Z,0.90
2022-11-21T04:53:55.520Z,0.80
2022-11-21T04:56:22.517Z,0.77
2022-11-21T04:58:53.567Z,1.00
2022-11-21T05:01:20.803Z,4.82
2022-11-21T05:03:47.831Z,6.13
2022-11-21T05:06:14.830Z,4.72
2022-11-21T05:08:41.805Z,4.60
2022-11-21T05:11:27.394Z,9.93
2022-11-21T05:13:55.091Z,7.43
2022-11-21T05:16:22.055Z,1.30
2022-11-21T05:18:49.129Z,1.88
2022-11-21T05:21:16.674Z,6.53
2022-11-21T05:23:43.595Z,6.75
2022-11-21T05:26:10.615Z,8.20
2022-11-21T05:28:37.928Z,7.28
2022-11-21T05:31:04.988Z,6.32
2022-11-21T05:33:31.959Z,5.40
2022-11-21T05:35:59.208Z,5.53
2022-11-21T05:38:26.245Z,1.00
2022-11-21T05:40:53.497Z,1.10
2022-11-21T05:43:38.917Z,1.05
2022-11-21T05:46:06.077Z,1.13
2022-11-21T05:48:34.362Z,1.27
2022-11-21T05:51:01.369Z,1.48
2022-11-21T05:53:28.407Z,1.30
2022-11-21T05:55:55.406Z,4.85
2022-11-21T05:58:23.080Z,6.65
2022-11-21T06:00:50.013Z,8.07
2022-11-21T06:03:34.617Z,7.03
2022-11-21T06:06:13.610Z,1.15
2022-11-21T06:08:46.880Z,7.45
2022-11-21T06:11:16.349Z,5.32
2022-11-21T06:13:44.178Z,6.50
2022-11-21T06:16:15.110Z,7.78
2022-11-21T06:18:45.224Z,1.83
2022-11-21T06:21:27.114Z,0.60
2022-11-21T06:23:57.054Z,6.28
2022-11-21T06:26:26.846Z,9.57
2022-11-21T06:28:55.583Z,6.70
2022-11-21T06:31:27.580Z,8.25
2022-11-21T06:33:59.485Z,6.57
2022-11-21T06:36:27.069Z,7.15
2022-11-21T06:38:55.836Z,5.78
2022-11-21T06:41:26.033Z,5.93
2022-11-21T06:43:53.552Z,0.50
2022-11-21T06:46:20.641Z,7.07
2022-11-21T06:48:47.800Z,9.15
2022-11-21T06:51:20.619Z,8.77
2022-11-21T06:53:56.009Z,9.48
2022-11-21T06:56:27.593Z,1.13
2022-11-21T06:58:55.944Z,11.15
2022-11-21T07:01:24.089Z,7.05
2022-11-21T07:03:51.243Z,8.95
2022-11-21T07:06:18.314Z,8.25
2022-11-21T07:08:45.339Z,8.10
2022-11-21T07:11:29.831Z,0.50
2022-11-21T07:13:56.927Z,1.45
2022-11-21T07:16:26.546Z,7.13
2022-11-21T07:18:53.748Z,6.38
2022-11-21T07:21:20.961Z,6.43
2022-11-21T07:23:48.777Z,7.97
2022-11-21T07:26:15.880Z,8.40
2022-11-21T07:28:43.338Z,7.35
2022-11-21T07:31:13.795Z,5.63
2022-11-21T07:33:43.530Z,7.75
2022-11-21T07:36:12.327Z,6.78
2022-11-21T07:38:41.017Z,7.57
2022-11-21T07:41:08.076Z,7.55
2022-11-21T07:43:35.214Z,9.23
2022-11-21T07:46:02.232Z,7.65
2022-11-21T07:48:29.529Z,8.35
2022-11-21T07:50:56.679Z,7.63
2022-11-21T07:53:24.295Z,5.68
2022-11-21T07:55:51.338Z,7.85
2022-11-21T07:58:18.407Z,7.80
2022-11-21T08:00:45.714Z,0.73
2022-11-21T08:03:14.023Z,7.72
2022-11-21T08:05:43.286Z,9.13
2022-11-21T08:08:12.955Z,6.72
2022-11-21T08:10:47.169Z,8.15
2022-11-21T08:13:15.179Z,8.80
2022-11-21T08:15:42.349Z,7.50
2022-11-21T08:18:10.173Z,7.68
2022-11-21T08:20:37.733Z,0.70
2022-11-21T08:23:06.712Z,6.80
2022-11-21T08:25:37.371Z,5.43
2022-11-21T08:28:05.525Z,8.20
2022-11-21T08:30:33.824Z,6.90
2022-11-21T08:33:02.234Z,7.32
2022-11-21T08:35:29.890Z,5.72
2022-11-21T08:38:01.844Z,6.40
2022-11-21T08:40:31.546Z,7.82
2022-11-21T08:42:59.987Z,4.35
2022-11-21T08:45:27.097Z,1.65
2022-11-21T08:47:54.985Z,0.80
2022-11-21T08:50:23.911Z,6.60
2022-11-21T08:52:51.200Z,0.60
2022-11-21T08:55:18.458Z,7.22
2022-11-21T08:57:45.383Z,7.05
2022-11-21T09:00:13.634Z,6.30
2022-11-21T09:02:40.687Z,7.40
2022-11-21T09:05:08.992Z,2.92
2022-11-21T09:07:37.097Z,7.03
2022-11-21T09:10:04.996Z,5.90
2022-11-21T09:12:32.030Z,7.93
2022-11-21T09:15:17.203Z,7.75
2022-11-21T09:18:02.860Z,7.55
2022-11-21T09:20:34.896Z,7.00
2022-11-21T09:23:10.159Z,7.07
2022-11-21T09:25:37.264Z,7.00
2022-11-21T09:28:07.221Z,7.57
2022-11-21T09:30:35.092Z,9.27
2022-11-21T09:33:08.117Z,7.10
2022-11-21T09:35:35.145Z,3.70
2022-11-21T09:38:02.835Z,0.60
2022-11-21T09:40:31.488Z,6.78
2022-11-21T09:42:58.416Z,5.93
2022-11-21T09:45:36.677Z,6.30
2022-11-21T09:48:24.496Z,6.70
2022-11-21T09:50:59.674Z,5.82
2022-11-21T09:53:39.423Z,5.50
2022-11-21T09:56:16.182Z,6.50
2022-11-21T09:59:11.664Z,5.22
2022-11-21T10:01:39.161Z,0.85
2022-11-21T10:04:06.154Z,0.65
2022-11-21T10:06:47.185Z,0.52
2022-11-21T10:09:55.857Z,0.60
2022-11-21T10:12:52.824Z,0.50
2022-11-21T10:15:47.149Z,0.60
2022-11-21T10:19:04.747Z,0.45
2022-11-21T10:21:57.344Z,0.43
2022-11-21T10:25:14.259Z,0.43
2022-11-21T10:28:23.272Z,0.52
2022-11-21T10:30:52.224Z,0.40
2022-11-21T10:33:32.510Z,6.43
2022-11-21T10:36:13.223Z,5.63
2022-11-21T10:38:43.484Z,5.80
2022-11-21T10:41:37.843Z,6.97
2022-11-21T10:44:46.622Z,5.82
2022-11-21T10:47:31.037Z,7.18
2022-11-21T10:50:09.801Z,4.57
2022-11-21T10:53:01.495Z,4.45
2022-11-21T10:55:28.540Z,6.30
2022-11-21T10:57:55.883Z,5.53
2022-11-21T11:00:27.671Z,5.47
2022-11-21T11:02:57.624Z,5.97
2022-11-21T11:05:29.882Z,5.03
2022-11-21T11:08:08.100Z,5.10
2022-11-21T11:10:41.423Z,5.70
2022-11-21T11:13:46.831Z,4.13
2022-11-21T11:16:21.683Z,3.92
2022-11-21T11:19:08.694Z,3.20
2022-11-21T11:21:41.544Z,3.70
2022-11-21T11:24:13.908Z,4.53
2022-11-21T11:26:51.470Z,0.40
2022-11-21T11:29:28.028Z,3.53
2022-11-21T11:31:57.780Z,2.97
2022-11-21T11:34:39.187Z,3.15
2022-11-21T11:37:41.484Z,3.45
2022-11-21T11:40:22.771Z,3.42
2022-11-21T11:43:44.867Z,4.68
2022-11-21T11:46:52.236Z,3.78
2022-11-21T11:49:53.230Z,7.45
2022-11-21T11:52:24.708Z,0.50
2022-11-21T11:55:05.651Z,5.13
2022-11-21T11:57:37.306Z,3.10
2022-11-21T12:00:30.927Z,2.15
2022-11-21T12:03:28.859Z,3.55
2022-11-21T12:06:12.042Z,3.15
2022-11-21T12:09:03.211Z,2.85
2022-11-21T12:12:07.819Z,2.97
2022-11-21T12:15:12.352Z,4.22
2022-11-21T12:17:48.619Z,0.30
2022-11-21T12:20:21.634Z,0.55
2022-11-21T12:22:52.328Z,3.25
2022-11-21T12:25:25.624Z,2.95
2022-11-21T12:27:56.185Z,2.65
2022-11-21T12:31:15.475Z,2.92
2022-11-21T12:34:10.710Z,4.45
2022-11-21T12:37:06.972Z,3.33
2022-11-21T12:39:50.530Z,2.30
2022-11-21T12:43:01.237Z,3.15
2022-11-21T12:45:34.731Z,5.85
2022-11-21T12:48:52.951Z,2.13
2022-11-21T12:52:08.270Z,2.50
2022-11-21T12:54:47.108Z,3.67
2022-11-21T12:57:21.677Z,0.77
2022-11-21T13:00:29.382Z,2.80
2022-11-21T13:03:41.865Z,1.92
2022-11-21T13:06:23.684Z,7.57
2022-11-21T13:08:53.422Z,5.22
2022-11-21T13:11:57.250Z,2.15
2022-11-21T13:15:07.310Z,3.05
2022-11-21T13:18:14.426Z,3.78
2022-11-21T13:20:51.574Z,0.47
2022-11-21T13:23:42.740Z,3.70
2022-11-21T13:26:30.543Z,5.53
2022-11-21T13:29:16.133Z,3.83
2022-11-21T13:31:43.678Z,3.53
2022-11-21T13:34:35.179Z,6.97
2022-11-21T13:37:03.800Z,0.45
2022-11-21T13:39:34.270Z,2.72
2022-11-21T13:42:28.060Z,3.25
2022-11-21T13:44:55.528Z,4.55
2022-11-21T13:47:25.613Z,2.42
2022-11-21T13:50:07.636Z,2.10
2022-11-21T13:52:50.168Z,2.50
2022-11-21T13:55:28.335Z,5.00
2022-11-21T13:58:15.728Z,4.30
2022-11-21T14:01:22.989Z,4.10
2022-11-21T14:04:39.656Z,3.00
2022-11-21T14:07:26.713Z,4.22
2022-11-21T14:09:56.555Z,0.45
2022-11-21T14:12:41.033Z,3.63
2022-11-21T14:15:28.844Z,2.95
2022-11-21T14:17:59.354Z,2.47
2022-11-21T14:20:44.051Z,3.33
2022-11-21T14:23:22.967Z,4.38
2022-11-21T14:26:01.429Z,9.07
2022-11-21T14:28:36.114Z,5.68
2022-11-21T14:31:09.424Z,4.45
2022-11-21T14:33:49.181Z,3.65
2022-11-21T14:36:20.876Z,4.15
2022-11-21T14:39:36.926Z,5.78
2022-11-21T14:42:03.884Z,4.88
2022-11-21T14:44:31.365Z,3.13
2022-11-21T14:47:25.828Z,1.95
2022-11-21T14:50:01.071Z,0.57
2022-11-21T14:52:33.598Z,3.33
2022-11-21T14:57:52.170Z,2.40
2022-11-21T15:03:24.264Z,4.13
2022-11-21T15:06:06.475Z,2.95
2022-11-21T15:12:16.555Z,2.70
2022-11-21T15:14:50.820Z,11.77
2022-11-21T15:17:22.276Z,4.47
2022-11-21T15:20:21.683Z,4.70
2022-11-21T15:22:50.564Z,6.43
2022-11-21T15:25:47.193Z,7.50
2022-11-21T15:28:21.718Z,7.53
2022-11-21T15:30:55.295Z,10.93
2022-11-21T15:33:22.464Z,5.35
2022-11-21T15:36:12.449Z,4.63
2022-11-21T15:38:51.469Z,4.38
2022-11-21T15:41:18.438Z,7.25
2022-11-21T15:43:48.697Z,7.63
2022-11-21T15:46:31.540Z,7.65
2022-11-21T15:49:31.033Z,6.60
2022-11-21T15:54:48.894Z,9.60
2022-11-21T15:57:12.767Z,9.32
2022-11-21T15:59:58.020Z,9.65
2022-11-21T16:02:25.039Z,9.15
2022-11-21T16:04:53.505Z,6.57
2022-11-21T16:07:20.588Z,10.18
2022-11-21T16:09:48.023Z,7.63
2022-11-21T16:12:15.034Z,7.35
2022-11-21T16:14:42.051Z,11.75
2022-11-21T16:17:09.194Z,10.02
2022-11-21T16:19:36.175Z,6.43
2022-11-21T16:22:03.133Z,5.00
2022-11-21T16:24:30.195Z,8.27
2022-11-21T16:26:57.723Z,7.43
2022-11-21T16:29:24.814Z,11.77
2022-11-21T16:31:52.420Z,10.40
2022-11-21T16:34:20.142Z,6.10
2022-11-21T16:36:47.169Z,12.63
2022-11-21T16:39:18.184Z,7.72
2022-11-21T16:41:46.794Z,6.13
2022-11-21T16:44:16.328Z,3.75
2022-11-21T16:46:47.324Z,7.85
2022-11-21T16:49:14.369Z,5.80
2022-11-21T16:51:41.603Z,6.18
2022-11-21T16:54:09.537Z,7.82
2022-11-21T16:56:36.879Z,7.35
2022-11-21T16:59:04.031Z,6.50
2022-11-21T17:01:31.231Z,5.18
2022-11-21T17:03:58.493Z,1.10
2022-11-21T17:06:29.695Z,5.15
2022-11-21T17:08:59.591Z,5.60
2022-11-21T17:11:30.676Z,5.97
2022-11-21T17:14:05.257Z,7.75
2022-11-21T17:16:34.511Z,9.75
2022-11-21T17:19:03.104Z,7.53
2022-11-21T17:21:31.516Z,9.23
2022-11-21T17:23:59.246Z,1.60
2022-11-21T17:26:29.466Z,9.07
2022-11-21T17:29:03.524Z,8.10
2022-11-21T17:31:30.946Z,8.75
2022-11-21T17:34:00.821Z,6.32
2022-11-21T17:36:30.153Z,7.93
2022-11-21T17:38:57.622Z,9.95
2022-11-21T17:41:26.782Z,8.27
2022-11-21T17:43:58.239Z,7.28
2022-11-21T17:46:26.285Z,8.80
2022-11-21T17:48:58.114Z,5.80
2022-11-21T17:51:35.428Z,6.88
2022-11-21T17:54:02.984Z,6.55
2022-11-21T17:56:33.644Z,6.63
2022-11-21T17:59:01.775Z,10.00
2022-11-21T18:01:29.694Z,7.88
2022-11-21T18:04:00.128Z,6.93
2022-11-21T18:06:31.242Z,6.57
2022-11-21T18:08:58.757Z,7.70
2022-11-21T18:11:34.588Z,6.57
2022-11-21T18:14:06.738Z,6.63
2022-11-21T18:16:34.576Z,8.38
2022-11-21T18:19:01.859Z,9.00
2022-11-21T18:21:31.513Z,6.93
2022-11-21T18:24:00.368Z,9.13
2022-11-21T18:26:31.434Z,7.95
2022-11-21T18:29:28.688Z,6.97
2022-11-21T18:31:49.327Z,9.35
2022-11-21T18:34:16.632Z,6.53
2022-11-21T18:36:43.720Z,12.60
2022-11-21T18:39:14.797Z,8.90
2022-11-21T18:41:43.503Z,8.43
2022-11-21T18:44:12.627Z,8.20
2022-11-21T18:46:42.219Z,10.88
2022-11-21T18:49:09.757Z,11.45
2022-11-21T18:51:37.251Z,8.32
2022-11-21T18:54:08.240Z,9.15
2022-11-21T18:56:37.703Z,7.90
2022-11-21T18:59:06.773Z,8.13
2022-11-21T19:01:36.331Z,6.68
2022-11-21T19:04:04.082Z,8.57
2022-11-21T19:06:31.389Z,8.32
2022-11-21T19:08:59.272Z,8.70
2022-11-21T19:11:29.821Z,11.13
2022-11-21T19:13:58.169Z,11.65
2022-11-21T19:16:27.508Z,12.10
2022-11-21T19:19:26.349Z,6.32
2022-11-21T19:21:42.959Z,8.88
2022-11-21T19:24:14.810Z,10.15
2022-11-21T19:26:42.630Z,10.10
2022-11-21T19:29:10.662Z,9.38
2022-11-21T19:31:43.065Z,9.77
2022-11-21T19:34:13.874Z,11.85
2022-11-21T19:36:41.252Z,11.45
2022-11-21T19:39:09.151Z,13.00
2022-11-21T19:41:36.537Z,11.45
2022-11-21T19:44:03.695Z,9.07
2022-11-21T19:46:35.202Z,9.15
2022-11-21T19:49:02.717Z,5.65
2022-11-21T19:51:36.556Z,10.65
2022-11-21T19:54:05.759Z,8.63
2022-11-21T19:56:33.513Z,6.95
2022-11-21T19:59:00.544Z,11.48
2022-11-21T20:01:30.716Z,7.70
2022-11-21T20:04:00.774Z,9.32
2022-11-21T20:06:34.339Z,6.43
2022-11-21T20:09:14.814Z,8.88
2022-11-21T20:11:44.539Z,8.82
2022-11-21T20:14:19.521Z,7.95
2022-11-21T20:16:49.855Z,10.43
2022-11-21T20:19:19.417Z,9.73
2022-11-21T20:21:47.291Z,10.70
2022-11-21T20:24:14.922Z,7.90
2022-11-21T20:26:43.457Z,6.80
2022-11-21T20:29:13.487Z,7.07
2022-11-21T20:31:42.001Z,10.80
2022-11-21T20:34:27.501Z,9.68
2022-11-21T20:36:54.800Z,6.88
2022-11-21T20:39:22.089Z,8.57
2022-11-21T20:41:49.186Z,12.23
2022-11-21T20:45:30.157Z,8.85
2022-11-21T20:47:07.626Z,7.15
2022-11-21T20:49:34.879Z,7.63
2022-11-21T20:54:49.142Z,12.60
2022-11-21T20:57:16.204Z,6.95
2022-11-21T20:59:43.681Z,7.25
2022-11-21T21:02:14.471Z,8.73
2022-11-21T21:04:42.737Z,11.13
2022-11-21T21:07:10.645Z,7.65
2022-11-21T21:09:38.227Z,7.63
2022-11-21T21:12:06.184Z,6.10
2022-11-21T21:14:33.779Z,8.55
2022-11-21T21:17:00.950Z,5.85
2022-11-21T21:19:28.727Z,5.63
2022-11-21T21:21:57.652Z,9.80
2022-11-21T21:24:25.102Z,6.20
2022-11-21T21:26:52.348Z,7.28
2022-11-21T21:29:21.117Z,5.82
2022-11-21T21:31:52.829Z,7.78
2022-11-21T21:34:22.598Z,8.15
2022-11-21T21:36:51.453Z,11.30
2022-11-21T21:39:18.886Z,5.95
2022-11-21T21:41:47.289Z,10.10
2022-11-21T21:44:15.620Z,8.38
2022-11-21T21:46:43.100Z,10.32
2022-11-21T21:49:10.531Z,2.92
2022-11-21T21:51:38.254Z,7.75
2022-11-21T21:54:06.669Z,8.02
2022-11-21T21:56:34.427Z,7.93
2022-11-21T21:59:01.828Z,6.10
2022-11-21T22:01:32.168Z,6.78
2022-11-21T22:04:02.384Z,7.40
2022-11-21T22:06:32.388Z,7.05
2022-11-21T22:09:00.115Z,9.80
2022-11-21T22:11:33.411Z,6.13
2022-11-21T22:14:10.907Z,2.25
2022-11-21T22:16:38.275Z,10.65
2022-11-21T22:19:05.775Z,7.63
2022-11-21T22:21:36.173Z,7.70
2022-11-21T22:24:25.341Z,11.77
2022-11-21T22:26:53.064Z,7.55
2022-11-21T22:29:20.127Z,6.93
2022-11-21T22:31:47.420Z,8.55
2022-11-21T22:34:14.784Z,7.80
2022-11-21T22:36:43.076Z,7.68
2022-11-21T22:39:10.231Z,9.25
2022-11-21T22:41:37.409Z,9.68
2022-11-21T22:44:04.929Z,9.52
2022-11-21T22:46:32.894Z,9.45
2022-11-21T22:49:00.690Z,9.30
2022-11-21T22:51:29.985Z,8.75
2022-11-21T22:53:57.846Z,5.93
2022-11-21T22:56:27.253Z,7.47
2022-11-21T22:58:55.084Z,9.98
2022-11-21T23:01:26.663Z,7.20
2022-11-21T23:03:55.867Z,7.47
2022-11-21T23:06:26.625Z,10.43
2022-11-21T23:08:56.661Z,7.32
2022-11-21T23:11:28.090Z,7.20
2022-11-21T23:13:56.783Z,10.75
2022-11-21T23:16:25.232Z,9.20
2022-11-21T23:18:54.355Z,8.30
2022-11-21T23:21:22.024Z,12.15
2022-11-21T23:23:49.204Z,10.57
2022-11-21T23:26:16.436Z,7.00
2022-11-21T23:28:43.575Z,11.45
2022-11-21T23:31:11.419Z,8.88
2022-11-21T23:33:38.765Z,8.55
2022-11-21T23:36:06.388Z,8.60
2022-11-21T23:38:33.528Z,7.70
2022-11-21T23:41:00.767Z,7.32
2022-11-21T23:43:28.087Z,8.93
2022-11-21T23:45:55.697Z,6.28
2022-11-21T23:48:24.416Z,11.48
2022-11-21T23:50:52.088Z,5.97
2022-11-21T23:53:22.995Z,10.23
2022-11-21T23:55:50.319Z,11.75
2022-11-21T23:58:17.943Z,8.10
